Time;durP1;ratioP1;P1;durP2;ratioP2;P2;SDS_P1;SDS_P2;PMS_P1;PMS_P2;Temp;Humidity;BMP_temperature;BMP_pressure;BME280_temperature;BME280_humidity;BME280_pressure;Samples;Min_cycle;Max_cycle;Signal;HPM_P1;HPM_P2
2023/11/01 00:01:36;;;;;;;11.02;6.80;;;;;;;16.82;88.73;99958.78;5051227;28;20021;-69
2023/11/01 00:04:02;;;;;;;11.07;7.10;;;;;;;16.41;88.20;99870.91;5050714;28;20061;-69
2023/11/01 00:06:28;;;;;;;8.77;6.38;;;;;;;16.92;87.35;99949.28;5052157;28;20064;-68
2023/11/01 00:08:53;;;;;;;9.52;6.43;;;;;;;16.97;87.63;99939.72;5051584;28;20040;-70
2023/11/01 00:11:19;;;;;;;11.25;5.97;;;;;;;16.98;87.94;99960.63;5051219;28;20025;-68
2023/11/01 00:13:45;;;;;;;9.60;5.82;;;;;;;16.86;87.99;99968.38;5052301;28;20056;-69
2023/11/01 00:16:10;;;;;;;12.38;6.30;;;;;;;16.77;88.76;100002.22;5050813;28;20040;-70
2023/11/01 00:18:35;;;;;;;12.35;6.88;;;;;;;16.77;89.80;100004.81;5050595;28;20108;-72
2023/11/01 00:21:01;;;;;;;14.20;7.03;;;;;;;16.58;91.41;100009.09;5050714;28;20075;-70
2023/11/01 00:23:26;;;;;;;13.38;7.00;;;;;;;16.62;91.65;99996.09;5050802;28;20025;-68
2023/11/01 00:25:52;;;;;;;15.60;7.13;;;;;;;16.60;91.04;99976.97;5051717;28;20036;-68
2023/11/01 00:28:18;;;;;;;11.88;6.63;;;;;;;16.73;91.71;99992.66;5051005;28;20111;-69
2023/11/01 00:30:43;;;;;;;11.23;6.47;;;;;;;16.77;91.84;99983.97;5051165;28;20036;-69
2023/11/01 00:33:09;;;;;;;11.65;6.65;;;;;;;16.77;91.32;99976.16;5050648;28;20025;-68
2023/11/01 00:35:34;;;;;;;14.90;7.32;;;;;;;16.79;91.71;99990.06;5050584;28;20028;-67
2023/11/01 00:37:59;;;;;;;13.45;7.53;;;;;;;16.75;91.71;99977.91;5050585;28;20033;-69
2023/11/01 00:40:25;;;;;;;9.88;6.22;;;;;;;16.73;91.60;99979.63;5050793;28;20040;-68
2023/11/01 00:42:51;;;;;;;13.23;7.07;;;;;;;16.79;90.71;99992.69;5008794;28;20056;-68
2023/11/01 00:45:16;;;;;;;13.50;7.45;;;;;;;16.78;91.03;99990.94;5008207;28;20152;-69
2023/11/01 00:47:42;;;;;;;11.50;6.93;;;;;;;16.33;91.20;99923.84;5008456;28;20040;-68
2023/11/01 00:50:07;;;;;;;10.98;6.70;;;;;;;16.74;91.19;99982.22;5008619;28;20077;-71
2023/11/01 00:52:33;;;;;;;12.82;7.38;;;;;;;16.77;92.02;99969.22;5008176;28;20048;-68
2023/11/01 00:54:59;;;;;;;12.77;7.20;;;;;;;16.77;92.33;99986.56;4991647;28;20038;-68
2023/11/01 00:57:24;;;;;;;10.93;6.63;;;;;;;16.78;91.47;99968.31;5008013;28;20532;-69
2023/11/01 00:59:50;;;;;;;10.23;6.47;;;;;;;16.81;91.23;99978.78;5008185;28;20053;-68
2023/11/01 01:02:15;;;;;;;11.57;6.53;;;;;;;16.42;91.50;99911.72;5008850;28;20139;-68
2023/11/01 01:04:45;;;;;;;11.60;7.07;;;;;;;16.87;91.00;99985.72;5007695;28;20037;-69
2023/11/01 01:07:13;;;;;;;;;;;;;;;16.85;91.18;99978.78;5008428;28;20393;-68
2023/11/01 01:09:39;;;;;;;11.13;6.78;;;;;;;16.75;91.16;99972.69;5008628;28;19971;-68
2023/11/01 01:12:05;;;;;;;11.88;6.30;;;;;;;16.75;91.50;99962.25;5007911;28;20467;-69
2023/11/01 01:14:31;;;;;;;11.23;6.53;;;;;;;16.78;91.36;99947.47;5025210;28;20048;-69
2023/11/01 01:16:56;;;;;;;11.23;6.72;;;;;;;16.87;91.18;99950.97;5030013;28;20029;-68
2023/11/01 01:19:22;;;;;;;11.93;7.45;;;;;;;16.83;90.88;99963.13;5029959;28;20053;-69
2023/11/01 01:21:48;;;;;;;12.32;6.57;;;;;;;16.63;91.30;99956.09;5029998;28;20033;-69
2023/11/01 01:24:14;;;;;;;14.82;6.57;;;;;;;16.70;91.39;99975.25;5030684;28;20048;-67
2023/11/01 01:26:40;;;;;;;11.60;6.50;;;;;;;16.72;91.94;99977.88;5029739;28;20049;-69
2023/11/01 01:29:06;;;;;;;11.35;6.65;;;;;;;16.71;91.66;99970.91;5030055;28;20063;-70
2023/11/01 01:31:33;;;;;;;12.15;7.03;;;;;;;16.69;91.97;99972.66;5030128;28;20036;-69
2023/11/01 01:33:58;;;;;;;12.38;6.95;;;;;;;16.71;91.98;99957.88;5030064;28;20044;-68
2023/11/01 01:36:24;;;;;;;9.60;6.78;;;;;;;16.77;91.84;99960.50;5029735;28;20037;-68
2023/11/01 01:38:49;;;;;;;12.88;6.78;;;;;;;16.54;92.38;99956.09;5030849;28;20029;-69
2023/11/01 01:41:15;;;;;;;13.82;7.45;;;;;;;16.49;92.94;99965.63;5029886;28;20119;-68
2023/11/01 01:43:40;;;;;;;14.60;7.10;;;;;;;16.43;93.37;99966.44;5036619;28;20060;-69
2023/11/01 01:46:09;;;;;;;11.48;7.05;;;;;;;16.45;93.38;99963.88;5049192;28;20037;-68
2023/11/01 01:48:36;;;;;;;11.00;7.13;;;;;;;16.13;93.42;99913.34;5049327;28;20033;-69
2023/11/01 01:51:03;;;;;;;12.68;7.55;;;;;;;16.41;93.29;99975.13;5030652;28;20098;-68
2023/11/01 01:53:29;;;;;;;14.82;8.18;;;;;;;16.28;93.35;99987.22;5050302;28;20055;-69
2023/11/01 01:55:55;;;;;;;15.40;7.55;;;;;;;16.10;93.46;99991.44;5049699;28;20072;-68
2023/11/01 01:58:22;;;;;;;15.60;8.13;;;;;;;16.01;92.14;99987.06;5050364;28;20060;-68
2023/11/01 02:00:49;;;;;;;15.60;8.00;;;;;;;15.65;91.91;99909.53;5049162;28;20108;-69
2023/11/01 02:03:15;;;;;;;16.98;8.38;;;;;;;16.07;92.13;99970.59;5049490;28;20021;-69
2023/11/01 02:05:41;;;;;;;16.02;8.55;;;;;;;16.14;90.99;99963.69;5049841;28;20025;-67
2023/11/01 02:08:07;;;;;;;17.55;9.65;;;;;;;15.71;89.37;99887.91;5049588;28;20036;-69
2023/11/01 02:10:32;;;;;;;16.45;9.18;;;;;;;16.13;89.25;99951.53;5049263;28;20021;-72
2023/11/01 02:13:08;;;;;;;17.70;9.20;;;;;;;16.13;89.56;99961.94;5049809;28;20029;-68
2023/11/01 02:15:34;;;;;;;16.83;10.40;;;;;;;15.98;90.59;99954.91;5031028;28;20025;-68
2023/11/01 02:17:59;;;;;;;19.33;9.43;;;;;;;15.94;91.11;99968.78;5049260;28;20035;-69
2023/11/01 02:20:26;;;;;;;15.52;10.07;;;;;;;15.48;91.41;99931.09;5049198;28;20072;-69
2023/11/01 02:22:55;;;;;;;15.65;9.77;;;;;;;15.31;91.25;99922.28;5049105;28;20029;-68
2023/11/01 02:25:21;;;;;;;22.45;10.75;;;;;;;15.44;90.90;99990.88;5049208;28;20025;-68
2023/11/01 02:27:47;;;;;;;17.23;10.27;;;;;;;15.17;91.12;99961.16;5051481;28;20427;-68
2023/11/01 02:30:16;;;;;;;21.27;10.70;;;;;;;15.29;91.32;99991.59;5010611;28;20046;-69
2023/11/01 02:32:42;;;;;;;;;;;;;;;15.20;91.63;99997.59;5011879;28;20116;-69
2023/11/01 02:35:08;;;;;;;18.55;10.23;;;;;;;15.07;92.38;99998.34;5011211;28;20058;-67
2023/11/01 02:37:33;;;;;;;19.52;10.43;;;;;;;14.83;94.03;100011.06;5010550;28;20046;-68
2023/11/01 02:39:59;;;;;;;19.10;10.90;;;;;;;14.95;93.64;100023.31;5011604;28;20045;-67
2023/11/01 02:42:24;;;;;;;22.55;10.68;;;;;;;15.00;94.27;100023.38;5010216;28;20034;-69
2023/11/01 02:44:50;;;;;;;17.80;10.95;;;;;;;15.03;94.36;100029.47;4994115;28;20073;-69
2023/11/01 02:47:15;;;;;;;22.52;11.40;;;;;;;15.00;94.86;100032.06;5010593;28;20043;-70
2023/11/01 02:49:41;;;;;;;21.05;12.30;;;;;;;14.44;95.90;99938.66;5011474;28;20046;-69
2023/11/01 02:52:06;;;;;;;23.73;12.02;;;;;;;15.02;96.43;100032.94;5010525;28;20022;-69
2023/11/01 02:54:32;;;;;;;22.83;12.48;;;;;;;15.03;96.73;100024.28;5011063;28;20034;-68
2023/11/01 02:56:57;;;;;;;20.15;11.55;;;;;;;14.63;97.22;99953.63;5010408;28;20552;-69
2023/11/01 02:59:23;;;;;;;20.15;11.10;;;;;;;15.08;97.43;100028.66;5010401;28;20040;-69
2023/11/01 03:01:49;;;;;;;18.88;10.50;;;;;;;15.01;97.99;100012.97;5042526;28;20033;-68
2023/11/01 03:04:15;;;;;;;18.20;9.93;;;;;;;14.97;98.21;100005.16;5052290;28;20060;-68
2023/11/01 03:06:40;;;;;;;14.68;9.77;;;;;;;15.01;97.78;99988.72;5052402;28;20225;-69
2023/11/01 03:09:06;;;;;;;17.30;9.70;;;;;;;15.16;97.36;100001.00;5053015;28;20040;-69
2023/11/01 03:11:31;;;;;;;16.75;9.98;;;;;;;15.13;98.23;100021.78;5034539;28;20082;-69
2023/11/01 03:13:56;;;;;;;17.38;9.80;;;;;;;15.12;98.31;100007.91;5052399;28;20025;-68
2023/11/01 03:16:22;;;;;;;18.50;10.90;;;;;;;15.14;97.78;100014.00;5052257;28;20045;-68
2023/11/01 03:18:48;;;;;;;19.52;11.80;;;;;;;15.08;96.93;100023.44;5052626;28;20056;-68
2023/11/01 03:21:13;;;;;;;21.08;12.52;;;;;;;14.85;97.96;100022.34;5051982;28;20086;-70
2023/11/01 03:23:39;;;;;;;20.40;11.82;;;;;;;14.88;98.03;100022.38;5051712;28;20025;-69
2023/11/01 03:26:04;;;;;;;21.08;12.90;;;;;;;14.92;97.34;100035.41;5052026;28;20029;-70
2023/11/01 03:28:30;;;;;;;28.35;15.07;;;;;;;14.84;96.86;100045.69;5034601;28;20025;-68
2023/11/01 03:30:58;;;;;;;24.55;13.27;;;;;;;14.58;96.29;100017.63;5052073;28;20033;-68
2023/11/01 03:33:25;;;;;;;20.55;12.77;;;;;;;14.79;95.82;100050.84;5051930;28;20070;-69
2023/11/01 03:35:50;;;;;;;24.83;13.35;;;;;;;14.79;95.34;100044.75;5051654;28;20025;-67
2023/11/01 03:38:16;;;;;;;20.80;12.55;;;;;;;14.86;94.76;100060.44;5051650;28;20541;-69
2023/11/01 03:40:41;;;;;;;21.13;11.60;;;;;;;14.82;94.93;100069.06;5051820;28;20032;-68
2023/11/01 03:43:07;;;;;;;22.73;11.95;;;;;;;14.81;94.54;100058.66;5052230;28;20033;-68
2023/11/01 03:45:33;;;;;;;21.27;13.02;;;;;;;14.79;94.11;100053.44;5051454;28;20041;-69
2023/11/01 03:47:58;;;;;;;22.63;13.18;;;;;;;14.48;93.05;100002.75;5033897;28;20124;-68
2023/11/01 03:50:23;;;;;;;22.67;13.63;;;;;;;14.64;92.84;100048.91;5051692;28;20017;-68
2023/11/01 03:52:49;;;;;;;22.85;14.30;;;;;;;14.72;92.88;100067.22;5052082;28;20021;-68
2023/11/01 03:55:14;;;;;;;25.77;15.35;;;;;;;14.72;92.61;100056.81;5051644;28;20033;-69
2023/11/01 03:57:40;;;;;;;28.98;14.63;;;;;;;14.50;92.81;99998.47;5051350;28;20037;-69
2023/11/01 04:00:07;;;;;;;24.08;14.25;;;;;;;14.87;93.27;100057.00;5051746;28;20021;-69
2023/11/01 04:02:33;;;;;;;25.15;15.10;;;;;;;14.87;94.25;100050.94;5052100;28;20029;-68
2023/11/01 04:04:59;;;;;;;22.92;15.05;;;;;;;14.88;95.01;100047.50;5051341;28;20029;-69
2023/11/01 04:07:24;;;;;;;22.98;14.60;;;;;;;14.86;95.70;100055.25;4999480;28;20503;-68
2023/11/01 04:09:50;;;;;;;25.02;15.02;;;;;;;14.82;96.27;100069.06;5051924;28;20049;-69
2023/11/01 04:12:15;;;;;;;23.00;14.50;;;;;;;14.52;95.66;100009.75;5049804;28;20040;-69
2023/11/01 04:14:41;;;;;;;22.33;14.07;;;;;;;14.52;94.93;100012.34;5050311;28;20078;-71
2023/11/01 04:17:06;;;;;;;25.73;15.07;;;;;;;14.77;95.14;100051.69;5048544;28;20036;-69
2023/11/01 04:19:32;;;;;;;23.70;14.15;;;;;;;14.94;95.49;100083.97;5051747;28;20052;-68
2023/11/01 04:21:58;;;;;;;24.55;13.80;;;;;;;14.96;94.42;100095.22;5049179;28;20045;-68
2023/11/01 04:24:24;;;;;;;26.52;15.55;;;;;;;15.00;94.40;100089.25;5033100;28;20052;-70
2023/11/01 04:26:52;;;;;;;27.08;14.60;;;;;;;14.96;94.15;100097.84;5050506;28;20028;-73
2023/11/01 04:29:18;;;;;;;25.42;14.20;;;;;;;14.82;95.17;100105.44;5050815;28;20033;-68
2023/11/01 04:31:43;;;;;;;26.17;15.63;;;;;;;14.68;95.19;100105.25;5051358;28;20467;-69
2023/11/01 04:34:10;;;;;;;21.05;14.20;;;;;;;14.59;95.70;100122.41;5050793;28;20025;-69
2023/11/01 04:36:37;;;;;;;22.98;13.88;;;;;;;14.45;96.90;100125.66;5042078;28;20411;-69
2023/11/01 04:39:03;;;;;;;27.23;16.23;;;;;;;14.52;96.84;100126.66;5051746;28;20021;-69
2023/11/01 04:41:28;;;;;;;26.67;15.45;;;;;;;14.29;95.76;100063.97;5009537;28;20048;-69
2023/11/01 04:43:54;;;;;;;32.35;17.13;;;;;;;14.49;95.88;100122.28;5051434;28;20064;-69
2023/11/01 04:46:19;;;;;;;25.90;15.50;;;;;;;14.03;95.86;100072.19;5050370;28;20037;-69
2023/11/01 04:48:45;;;;;;;29.52;16.15;;;;;;;14.23;96.76;100137.41;5050367;28;20029;-69
2023/11/01 04:51:11;;;;;;;27.50;15.60;;;;;;;14.43;97.45;100152.47;5050235;28;20043;-69
2023/11/01 04:53:37;;;;;;;28.70;16.60;;;;;;;14.48;97.80;100146.50;5050535;28;20029;-69
2023/11/01 04:56:05;;;;;;;29.83;15.73;;;;;;;14.58;98.16;100152.72;5033098;28;20025;-68
2023/11/01 04:58:35;;;;;;;25.88;14.82;;;;;;;14.74;98.06;100152.97;5047414;28;20037;-68
2023/11/01 05:01:01;;;;;;;31.23;16.58;;;;;;;14.84;98.39;100154.84;5050090;28;20044;-68
2023/11/01 05:03:26;;;;;;;35.47;17.50;;;;;;;14.92;97.15;100157.59;5050181;28;20032;-72
2023/11/01 05:05:52;;;;;;;27.92;15.77;;;;;;;14.82;97.68;100172.16;5050503;28;20086;-68
2023/11/01 05:08:17;;;;;;;32.50;17.70;;;;;;;14.70;98.32;100170.25;5049902;28;20041;-69
2023/11/01 05:10:43;;;;;;;33.20;15.98;;;;;;;14.63;98.36;100179.63;5032450;28;20067;-68
2023/11/01 05:13:08;;;;;;;30.63;16.38;;;;;;;14.60;99.58;100187.38;5050995;28;20017;-70
2023/11/01 05:15:36;;;;;;;29.67;16.17;;;;;;;14.62;98.40;100185.69;5050213;28;20036;-69
2023/11/01 05:18:02;;;;;;;28.92;16.58;;;;;;;14.67;98.49;100173.66;5049814;28;20044;-68
2023/11/01 05:20:28;;;;;;;29.05;16.63;;;;;;;14.74;98.43;100173.75;5050874;28;20029;-69
2023/11/01 05:22:54;;;;;;;29.88;16.95;;;;;;;14.79;97.95;100179.91;5049633;28;20090;-73
2023/11/01 05:25:20;;;;;;;30.42;17.60;;;;;;;14.82;97.27;100172.16;5049690;28;20458;-69
2023/11/01 05:27:45;;;;;;;27.88;16.92;;;;;;;14.82;96.47;100169.56;5049564;28;20063;-69
2023/11/01 05:30:15;;;;;;;33.05;19.27;;;;;;;14.92;96.18;100178.38;5049836;28;20421;-69
2023/11/01 05:32:47;;;;;;;32.35;18.25;;;;;;;15.04;95.90;100183.72;5050512;28;20372;-69
2023/11/01 05:35:14;;;;;;;33.90;19.25;;;;;;;15.10;96.46;100189.00;5049859;28;20043;-71
2023/11/01 05:37:40;;;;;;;33.80;18.73;;;;;;;14.94;95.42;100154.16;5049586;28;20045;-69
2023/11/01 05:40:13;;;;;;;27.65;18.75;;;;;;;14.60;95.81;100131.94;5049767;28;20021;-68
2023/11/01 05:42:40;;;;;;;27.95;18.65;;;;;;;14.77;96.29;100174.69;5049529;28;20071;-68
2023/11/01 05:45:08;;;;;;;30.42;19.88;;;;;;;14.88;95.96;100180.06;5049849;28;20052;-69
2023/11/01 05:47:35;;;;;;;32.70;20.58;;;;;;;14.52;95.96;100116.25;5032420;28;20549;-69
2023/11/01 05:50:01;;;;;;;37.10;20.17;;;;;;;14.27;95.08;100076.03;5049812;28;20442;-69
2023/11/01 05:52:27;;;;;;;34.50;19.60;;;;;;;15.10;95.08;100219.34;5049528;28;20032;-69
2023/11/01 05:54:52;;;;;;;29.42;18.58;;;;;;;15.10;94.64;100216.75;5050253;28;20029;-69
2023/11/01 05:57:18;;;;;;;34.22;20.30;;;;;;;15.10;94.40;100216.75;5049201;28;20090;-68
2023/11/01 05:59:43;;;;;;;31.63;16.88;;;;;;;15.07;93.75;100214.97;5049489;28;20036;-69
2023/11/01 06:02:09;;;;;;;31.58;17.38;;;;;;;15.01;93.90;100220.94;5049703;28;20518;-68
2023/11/01 06:04:34;;;;;;;35.38;17.70;;;;;;;14.64;94.15;100165.81;5049106;28;20483;-69
2023/11/01 06:07:02;;;;;;;29.17;17.77;;;;;;;15.04;93.91;100225.31;5049489;28;20132;-68
2023/11/01 06:09:28;;;;;;;30.20;18.25;;;;;;;15.11;93.48;100228.91;5049844;28;20029;-68
2023/11/01 06:11:53;;;;;;;29.40;18.08;;;;;;;15.00;94.27;100228.72;5048712;28;20029;-68
2023/11/01 06:14:20;;;;;;;32.05;17.90;;;;;;;15.03;94.30;100237.44;5047927;28;20033;-68
2023/11/01 06:16:46;;;;;;;28.50;17.45;;;;;;;15.11;93.57;100239.28;5049050;28;20036;-68
2023/11/01 06:19:12;;;;;;;32.47;18.65;;;;;;;15.15;93.73;100234.16;5048235;28;20430;-69
2023/11/01 06:21:39;;;;;;;32.70;20.00;;;;;;;15.20;93.21;100235.09;5013600;28;20048;-68
2023/11/01 06:24:04;;;;;;;34.53;19.73;;;;;;;15.29;93.38;100233.47;5048981;28;20056;-67
2023/11/01 06:26:31;;;;;;;28.27;17.90;;;;;;;15.40;93.56;100238.81;5048976;28;20487;-69
2023/11/01 06:28:57;;;;;;;33.25;19.77;;;;;;;15.44;92.97;100240.59;5049522;28;20029;-67
2023/11/01 06:31:22;;;;;;;36.38;19.75;;;;;;;15.47;92.70;100235.47;5048772;28;20056;-69
2023/11/01 06:33:48;;;;;;;29.63;18.63;;;;;;;15.13;92.75;100185.59;5048690;28;20060;-68
2023/11/01 06:36:17;;;;;;;34.17;19.65;;;;;;;15.47;92.86;100227.66;5049204;28;20025;-69
2023/11/01 06:38:43;;;;;;;29.55;19.15;;;;;;;15.65;92.89;100250.41;4999157;28;20099;-69
2023/11/01 06:41:09;;;;;;;30.70;19.30;;;;;;;15.58;92.23;100228.66;5048706;28;20086;-70
2023/11/01 06:43:34;;;;;;;30.10;19.38;;;;;;;15.67;92.13;100244.38;5050046;28;20052;-70
2023/11/01 06:46:00;;;;;;;31.48;19.52;;;;;;;15.73;91.97;100250.53;5049382;28;20037;-69
2023/11/01 06:48:25;;;;;;;29.08;18.63;;;;;;;15.71;91.95;100249.63;5048423;28;20032;-71
2023/11/01 06:50:51;;;;;;;29.77;17.90;;;;;;;15.68;91.81;100251.34;5048963;28;20090;-69
2023/11/01 06:53:16;;;;;;;30.75;19.10;;;;;;;15.75;91.81;100248.81;5048812;28;20506;-69
2023/11/01 06:55:42;;;;;;;28.85;18.70;;;;;;;15.79;91.57;100250.63;5048601;28;20024;-69
2023/11/01 06:58:07;;;;;;;33.30;19.58;;;;;;;15.90;91.45;100254.25;5049276;28;20049;-69
2023/11/01 07:00:33;;;;;;;31.88;17.85;;;;;;;15.93;90.86;100236.03;5049036;28;20052;-68
2023/11/01 07:02:59;;;;;;;36.00;20.23;;;;;;;15.90;91.31;100225.63;5049312;28;20055;-69
2023/11/01 07:05:25;;;;;;;47.55;25.58;;;;;;;15.95;91.48;100223.94;5048768;28;20063;-68
2023/11/01 07:07:50;;;;;;;29.67;18.10;;;;;;;15.90;91.76;100210.00;5048912;28;20067;-68
2023/11/01 07:10:17;;;;;;;30.83;18.88;;;;;;;15.91;91.97;100221.25;5048752;28;20040;-70
2023/11/01 07:12:43;;;;;;;29.50;17.27;;;;;;;15.94;91.80;100222.19;5049149;28;20120;-68
2023/11/01 07:15:10;;;;;;;27.83;17.00;;;;;;;15.93;92.26;100214.34;5051337;28;20163;-69
2023/11/01 07:17:35;;;;;;;26.73;16.13;;;;;;;16.01;91.61;100218.78;5051525;28;20029;-69
2023/11/01 07:20:01;;;;;;;28.38;16.83;;;;;;;16.09;91.37;100213.66;5052130;28;20052;-69
2023/11/01 07:22:28;;;;;;;27.13;16.48;;;;;;;16.19;91.18;100214.63;5051899;28;20067;-68
2023/11/01 07:24:53;;;;;;;30.83;16.10;;;;;;;16.28;90.64;100206.88;5052665;28;20025;-68
2023/11/01 07:27:19;;;;;;;22.83;14.75;;;;;;;16.45;89.92;100222.69;5051879;28;20029;-68
2023/11/01 07:29:45;;;;;;;24.33;14.65;;;;;;;16.40;89.72;100210.44;5052209;28;20033;-69
2023/11/01 07:32:10;;;;;;;26.00;15.93;;;;;;;16.40;89.96;100208.75;5052627;28;20171;-69
2023/11/01 07:34:36;;;;;;;28.88;15.70;;;;;;;16.54;90.17;100223.63;5051730;28;20059;-68
2023/11/01 07:37:01;;;;;;;26.15;15.45;;;;;;;16.54;89.83;100216.66;5051795;28;20124;-69
2023/11/01 07:39:27;;;;;;;27.73;15.93;;;;;;;16.70;89.79;100229.81;5052535;28;20082;-67
2023/11/01 07:41:52;;;;;;;25.65;16.35;;;;;;;16.77;89.80;100227.28;5051822;28;20025;-69
2023/11/01 07:44:19;;;;;;;33.33;16.95;;;;;;;16.97;89.16;100240.50;5051811;28;20048;-69
2023/11/01 07:46:44;;;;;;;24.00;15.13;;;;;;;17.11;88.43;100231.91;5051947;28;20738;-68
2023/11/01 07:49:10;;;;;;;22.50;14.10;;;;;;;17.39;87.45;100252.94;5051843;28;20025;-68
2023/11/01 07:51:36;;;;;;;22.73;14.77;;;;;;;17.61;86.08;100254.78;5051095;28;20021;-69
2023/11/01 07:54:02;;;;;;;22.40;13.88;;;;;;;17.85;85.46;100250.50;5051533;28;20033;-68
2023/11/01 07:56:27;;;;;;;30.17;14.98;;;;;;;18.07;85.36;100248.03;5051296;28;20045;-67
2023/11/01 07:58:53;;;;;;;21.23;13.30;;;;;;;18.26;84.84;100235.84;5052221;28;20029;-68
2023/11/01 08:01:18;;;;;;;23.88;14.13;;;;;;;18.53;82.96;100250.69;5051123;28;20021;-68
2023/11/01 08:03:44;;;;;;;26.05;12.88;;;;;;;18.48;82.58;100231.53;5051210;28;20036;-66
2023/11/01 08:06:09;;;;;;;21.45;12.68;;;;;;;18.21;81.87;100182.72;5051324;28;20108;-70
2023/11/01 08:08:35;;;;;;;21.13;12.73;;;;;;;18.56;81.17;100250.69;5051961;28;20025;-69
2023/11/01 08:11:01;;;;;;;20.10;12.45;;;;;;;18.69;81.24;100261.16;5051127;28;20029;-68
2023/11/01 08:13:26;;;;;;;20.55;12.32;;;;;;;18.69;82.32;100256.81;5051759;28;20060;-69
2023/11/01 08:15:52;;;;;;;19.73;12.40;;;;;;;18.69;81.22;100258.53;5051055;28;20029;-68
2023/11/01 08:18:18;;;;;;;23.27;12.80;;;;;;;18.72;81.36;100255.94;5050822;28;20075;-68
2023/11/01 08:20:45;;;;;;;23.77;12.88;;;;;;;18.34;80.97;100189.69;5050737;28;20029;-69
2023/11/01 08:23:11;;;;;;;22.33;12.48;;;;;;;18.78;81.13;100261.16;5049673;28;20025;-68
2023/11/01 08:25:36;;;;;;;19.63;10.90;;;;;;;18.76;80.95;100261.16;5015524;28;20423;-68
2023/11/01 08:28:02;;;;;;;18.67;12.35;;;;;;;18.75;81.24;100267.28;5050820;28;20025;-68
2023/11/01 08:30:27;;;;;;;22.90;12.32;;;;;;;18.83;80.83;100269.88;5050605;28;20037;-69
2023/11/01 08:32:53;;;;;;;22.45;12.57;;;;;;;18.90;80.83;100270.75;5051702;28;20057;-68
2023/11/01 08:35:18;;;;;;;23.45;11.90;;;;;;;18.93;80.15;100265.56;5050554;28;20025;-68
2023/11/01 08:37:44;;;;;;;19.02;10.85;;;;;;;18.97;79.29;100263.81;5050812;28;20091;-68
2023/11/01 08:40:10;;;;;;;21.20;10.52;;;;;;;19.01;79.31;100268.16;5050943;28;20039;-69
2023/11/01 08:42:35;;;;;;;22.88;12.00;;;;;;;19.04;79.29;100276.00;5050350;28;20086;-68
2023/11/01 08:45:02;;;;;;;18.23;10.10;;;;;;;19.04;78.57;100276.88;5050612;28;20509;-68
2023/11/01 08:47:42;;;;;;;17.30;10.20;;;;;;;19.06;78.59;100282.09;5051129;28;20486;-68
2023/11/01 08:50:13;;;;;;;;;;;;;;;19.09;78.20;100284.72;5050792;28;20021;-69
2023/11/01 08:52:40;;;;;;;18.58;10.80;;;;;;;19.09;78.22;100282.13;5048543;28;19912;-70
2023/11/01 08:55:16;;;;;;;13.70;10.40;;;;;;;19.02;77.96;100278.63;5049710;28;20047;-69
2023/11/01 08:57:44;;;;;;;17.92;11.07;;;;;;;18.87;78.12;100228.91;5046419;28;20037;-67
2023/11/01 09:00:10;;;;;;;16.55;10.30;;;;;;;19.14;78.31;100263.78;5050076;28;20021;-69
2023/11/01 09:02:35;;;;;;;16.80;9.98;;;;;;;19.31;77.63;100282.94;5049729;28;20029;-69
2023/11/01 09:05:01;;;;;;;16.23;9.80;;;;;;;19.23;77.92;100262.00;5049749;28;20499;-67
2023/11/01 09:07:26;;;;;;;18.85;10.95;;;;;;;19.36;77.73;100267.22;5049627;28;20041;-69
2023/11/01 09:09:53;;;;;;;16.90;9.98;;;;;;;19.50;77.46;100278.53;5049880;28;20028;-69
2023/11/01 09:12:19;;;;;;;14.98;8.77;;;;;;;19.68;76.48;100289.84;5049246;28;20115;-72
2023/11/01 09:14:46;;;;;;;16.20;9.95;;;;;;;19.93;76.26;100290.63;5049751;28;20124;-68
2023/11/01 09:17:12;;;;;;;15.90;9.27;;;;;;;20.15;74.65;100286.16;5049247;28;20032;-69
2023/11/01 09:19:38;;;;;;;15.82;9.52;;;;;;;20.26;73.09;100277.34;5049465;28;20102;-69
2023/11/01 09:22:04;;;;;;;16.08;9.38;;;;;;;20.01;71.44;100209.34;5049357;28;20112;-71
2023/11/01 09:24:30;;;;;;;16.17;10.10;;;;;;;20.60;73.13;100270.13;5049193;28;20036;-69
2023/11/01 09:26:55;;;;;;;13.60;8.02;;;;;;;20.67;69.82;100245.59;5049104;28;20529;-68
2023/11/01 09:29:21;;;;;;;17.80;9.35;;;;;;;20.85;70.37;100252.47;5049054;28;20055;-67
2023/11/01 09:31:46;;;;;;;13.82;9.20;;;;;;;20.98;70.62;100258.47;5050053;28;20494;-69
2023/11/01 09:34:12;;;;;;;13.65;8.45;;;;;;;21.08;71.56;100266.25;5048975;28;20082;-68
2023/11/01 09:36:41;;;;;;;15.23;9.48;;;;;;;21.01;72.18;100236.59;5031595;28;20032;-69
2023/11/01 09:39:07;;;;;;;19.37;8.87;;;;;;;21.18;71.83;100249.53;5048466;28;20033;-69
2023/11/01 09:42:14;;;;;;;13.82;7.22;;;;;;;20.83;69.45;100254.22;5049330;28;20025;-68
2023/11/01 09:44:40;;;;;;;11.23;5.85;;;;;;;20.89;68.30;100257.69;4966963;28;20430;-68
2023/11/01 09:47:06;;;;;;;15.35;6.72;;;;;;;20.44;67.60;100166.25;4965942;28;20039;-69
2023/11/01 09:49:31;;;;;;;10.55;6.78;;;;;;;21.02;67.78;100238.31;4967625;28;20496;-69
2023/11/01 09:52:00;;;;;;;12.50;6.78;;;;;;;21.12;68.69;100249.59;4967523;28;20035;-69
2023/11/01 09:54:26;;;;;;;17.42;8.93;;;;;;;21.19;70.12;100240.78;4967517;28;20031;-71
2023/11/01 09:56:54;;;;;;;13.90;7.45;;;;;;;21.46;68.29;100246.63;4968290;28;20042;-68
2023/11/01 09:59:20;;;;;;;9.88;5.22;;;;;;;21.54;65.73;100221.09;4967819;28;20034;-68
2023/11/01 10:01:46;;;;;;;10.48;5.32;;;;;;;21.97;64.03;100225.84;4967735;28;20058;-69
2023/11/01 10:04:12;;;;;;;11.30;5.20;;;;;;;22.11;62.76;100228.25;4967072;28;20058;-69
2023/11/01 10:06:38;;;;;;;12.35;4.97;;;;;;;22.11;62.45;100211.63;4968618;28;20082;-69
2023/11/01 10:09:05;;;;;;;10.55;5.30;;;;;;;21.79;62.19;100134.13;4967530;28;20555;-69
2023/11/01 10:11:31;;;;;;;12.18;5.72;;;;;;;22.25;62.71;100195.63;4966594;28;20617;-71
2023/11/01 10:13:57;;;;;;;10.25;5.13;;;;;;;22.45;62.72;100206.75;4967550;28;20039;-70
2023/11/01 10:16:23;;;;;;;10.43;5.45;;;;;;;22.65;61.35;100208.16;4967391;28;20485;-70
2023/11/01 10:18:48;;;;;;;12.35;5.88;;;;;;;22.70;60.90;100187.91;4967021;28;20077;-70
2023/11/01 10:21:14;;;;;;;12.77;5.68;;;;;;;22.87;61.16;100195.50;5004784;28;20529;-69
2023/11/01 10:23:39;;;;;;;12.70;6.40;;;;;;;22.87;62.89;100197.28;5048798;28;20518;-68
2023/11/01 10:26:05;;;;;;;12.10;5.50;;;;;;;22.16;61.60;100104.63;5048384;28;20048;-69
2023/11/01 10:28:39;;;;;;;9.35;4.95;;;;;;;22.88;61.03;100191.09;5031244;28;20064;-72
2023/11/01 10:31:05;;;;;;;9.02;4.32;;;;;;;22.43;60.45;100098.06;5048153;28;20117;-70
2023/11/01 10:33:33;;;;;;;8.82;3.70;;;;;;;23.22;58.59;100188.72;5048268;28;20100;-70
2023/11/01 10:36:01;;;;;;;10.38;4.55;;;;;;;23.30;59.12;100190.34;5048389;28;20124;-69
2023/11/01 10:38:28;;;;;;;7.10;4.68;;;;;;;23.24;60.47;100154.44;5048835;28;20087;-70
2023/11/01 10:40:58;;;;;;;8.27;4.70;;;;;;;23.56;58.66;100184.53;5048781;28;20044;-69
2023/11/01 10:43:27;;;;;;;8.95;4.50;;;;;;;23.61;58.01;100180.00;5048965;28;20052;-69
2023/11/01 10:45:57;;;;;;;8.13;4.20;;;;;;;23.69;57.90;100191.28;5050394;28;20116;-72
2023/11/01 10:48:25;;;;;;;10.38;4.53;;;;;;;23.80;57.83;100179.63;5051909;28;20044;-68
2023/11/01 10:50:51;;;;;;;10.07;4.95;;;;;;;23.97;56.97;100190.66;5052086;28;20021;-69
2023/11/01 10:53:17;;;;;;;7.80;4.25;;;;;;;23.74;57.00;100128.78;5052065;28;20039;-68
2023/11/01 10:55:43;;;;;;;8.07;3.35;;;;;;;24.03;55.43;100187.91;5051385;28;20032;-69
2023/11/01 10:58:14;;;;;;;8.27;3.67;;;;;;;23.96;55.92;100186.28;5052439;28;20043;-69
2023/11/01 11:00:44;;;;;;;8.45;3.83;;;;;;;23.89;56.32;100168.88;5051306;28;20035;-69
2023/11/01 11:03:43;;;;;;;10.95;3.70;;;;;;;24.14;55.51;100178.84;5052163;28;20033;-71
2023/11/01 11:06:10;;;;;;;9.18;3.47;;;;;;;24.19;54.83;100177.00;5049249;28;20033;-69
2023/11/01 11:08:36;;;;;;;7.10;3.00;;;;;;;24.20;54.19;100174.31;5051808;28;20112;-69
2023/11/01 11:11:16;;;;;;;10.93;3.90;;;;;;;23.77;54.51;100127.84;5051946;28;20029;-68
2023/11/01 11:13:42;;;;;;;6.85;2.92;;;;;;;24.04;54.56;100158.00;5050734;28;20028;-69